Time;durP1;ratioP1;P1;durP2;ratioP2;P2;SDS_P1;SDS_P2;PMS_P1;PMS_P2;Temp;Humidity;BMP_temperature;BMP_pressure;BME280_temperature;BME280_humidity;BME280_pressure;Samples;Min_cycle;Max_cycle;Signal;HPM_P1;HPM_P2
2021/01/30 00:01:45;;;;;;;43.40;20.08;;;-3.00;77.30;;;;;;5096852;28;20024;-42
2021/01/30 00:04:14;;;;;;;38.75;18.08;;;-3.10;77.40;;;;;;5098486;28;20020;-42
2021/01/30 00:06:54;;;;;;;33.70;17.05;;;-3.10;77.30;;;;;;5097779;28;20333;-42
2021/01/30 00:09:21;;;;;;;33.08;15.98;;;-3.10;77.50;;;;;;5098137;28;20031;-42
2021/01/30 00:11:52;;;;;;;34.03;15.20;;;-3.10;77.60;;;;;;5097004;28;20118;-42
2021/01/30 00:14:24;;;;;;;42.92;19.92;;;-3.10;77.60;;;;;;5098029;28;20024;-42
2021/01/30 00:16:51;;;;;;;37.30;18.85;;;-3.20;77.30;;;;;;5097186;28;20110;-42
2021/01/30 00:19:17;;;;;;;41.55;19.92;;;-3.20;77.30;;;;;;5097829;28;20051;-42
2021/01/30 00:21:53;;;;;;;40.90;20.30;;;-3.20;77.20;;;;;;5097407;28;20024;-42
2021/01/30 00:24:20;;;;;;;34.60;17.63;;;-3.30;76.90;;;;;;5097993;28;20059;-42
2021/01/30 00:27:01;;;;;;;38.17;19.35;;;-3.30;76.90;;;;;;5097055;28;20031;-42
2021/01/30 00:29:28;;;;;;;;;;;-3.30;77.00;;;;;;5098778;28;20055;-42
2021/01/30 00:31:54;;;;;;;33.42;16.75;;;-3.40;77.10;;;;;;5096906;28;20229;-42
2021/01/30 00:34:22;;;;;;;38.40;17.60;;;-3.40;77.10;;;;;;5098081;28;20028;-42
2021/01/30 00:36:53;;;;;;;47.08;20.65;;;-3.50;77.00;;;;;;5096608;28;20428;-42
2021/01/30 00:39:18;;;;;;;47.17;21.92;;;-3.50;77.10;;;;;;5097079;28;20042;-41
2021/01/30 00:41:44;;;;;;;31.05;15.63;;;-3.50;76.90;;;;;;5096992;28;20024;-42
2021/01/30 00:44:10;;;;;;;31.58;14.60;;;-3.60;76.80;;;;;;5098108;28;20024;-42
2021/01/30 00:46:36;;;;;;;33.38;15.65;;;-3.50;77.10;;;;;;5096302;28;20028;-42
2021/01/30 00:49:02;;;;;;;34.90;15.63;;;-3.60;77.00;;;;;;5097676;28;20034;-42
2021/01/30 00:51:28;;;;;;;33.78;16.60;;;-3.60;77.20;;;;;;5096637;28;20065;-42
2021/01/30 00:53:53;;;;;;;31.67;16.85;;;-3.60;77.10;;;;;;5097313;28;20030;-42
2021/01/30 00:56:19;;;;;;;45.00;19.98;;;-3.60;76.90;;;;;;5096246;28;20030;-42
2021/01/30 00:58:45;;;;;;;38.47;17.45;;;-3.70;76.60;;;;;;5097436;28;20051;-42
2021/01/30 01:01:12;;;;;;;35.50;16.55;;;-3.70;76.50;;;;;;5095639;28;20421;-42
2021/01/30 01:03:38;;;;;;;39.65;16.98;;;-3.70;76.90;;;;;;5095978;28;20081;-41
2021/01/30 01:06:04;;;;;;;40.03;17.95;;;-3.80;77.00;;;;;;5096339;28;20059;-42
2021/01/30 01:08:30;;;;;;;41.95;20.33;;;-3.80;77.00;;;;;;5096800;28;20101;-42
2021/01/30 01:10:57;;;;;;;43.80;21.20;;;-3.80;76.80;;;;;;5096106;28;20066;-42
2021/01/30 01:13:25;;;;;;;47.92;20.45;;;-3.90;76.60;;;;;;5096692;28;20032;-42
2021/01/30 01:15:51;;;;;;;46.58;20.25;;;-3.90;76.70;;;;;;5095940;28;20106;-42
2021/01/30 01:18:17;;;;;;;35.97;17.83;;;-3.90;76.80;;;;;;5096801;28;20094;-42
2021/01/30 01:20:43;;;;;;;37.97;17.88;;;-4.00;76.90;;;;;;5096869;28;20048;-42
2021/01/30 01:23:10;;;;;;;38.20;18.27;;;-4.00;77.00;;;;;;5096642;28;20349;-42
2021/01/30 01:25:35;;;;;;;39.05;17.52;;;-4.00;76.80;;;;;;5095949;28;20024;-42
2021/01/30 01:28:01;;;;;;;41.00;16.70;;;-4.00;76.80;;;;;;5096406;28;20031;-42
2021/01/30 01:30:27;;;;;;;39.78;17.80;;;-4.00;76.70;;;;;;5095433;28;20031;-42
2021/01/30 01:32:54;;;;;;;39.83;18.02;;;-4.10;76.60;;;;;;5096396;28;20036;-42
2021/01/30 01:35:23;;;;;;;35.03;15.93;;;-4.10;76.30;;;;;;5095863;28;20026;-42
2021/01/30 01:37:51;;;;;;;30.10;14.18;;;-4.10;76.30;;;;;;5096113;28;20035;-42
2021/01/30 01:40:26;;;;;;;35.58;15.77;;;-4.20;76.40;;;;;;5096492;28;20394;-42
2021/01/30 01:43:09;;;;;;;34.58;16.02;;;-4.20;76.70;;;;;;5096198;28;20034;-42
2021/01/30 01:45:35;;;;;;;29.33;15.02;;;-4.20;76.40;;;;;;5095786;28;20051;-42
2021/01/30 01:48:05;;;;;;;27.17;13.48;;;-4.30;76.50;;;;;;5096337;28;20438;-42
2021/01/30 01:50:45;;;;;;;30.83;14.23;;;-4.30;76.70;;;;;;5095198;28;20024;-42
2021/01/30 01:53:23;;;;;;;28.27;14.10;;;-4.30;76.90;;;;;;5096343;28;20032;-42
2021/01/30 01:55:53;;;;;;;37.05;15.98;;;-4.30;76.90;;;;;;5095924;28;20073;-42
2021/01/30 01:58:20;;;;;;;27.05;13.50;;;-4.30;76.80;;;;;;5096378;28;20043;-42
2021/01/30 02:00:48;;;;;;;27.10;13.50;;;-4.30;76.90;;;;;;5094988;28;20034;-42
2021/01/30 02:03:14;;;;;;;33.78;15.90;;;-4.40;77.10;;;;;;5096132;28;20055;-42
2021/01/30 02:05:40;;;;;;;28.45;14.52;;;-4.30;77.20;;;;;;5095131;28;20020;-42
2021/01/30 02:08:10;;;;;;;28.15;14.77;;;-4.30;77.10;;;;;;5096085;28;20376;-42
2021/01/30 02:10:42;;;;;;;32.67;15.48;;;-4.30;77.20;;;;;;5095572;28;20032;-42
2021/01/30 02:13:19;;;;;;;35.50;16.05;;;-4.30;77.20;;;;;;5095524;28;20341;-42
2021/01/30 02:15:49;;;;;;;34.97;16.15;;;-4.30;76.90;;;;;;5095328;28;20054;-42
2021/01/30 02:18:26;;;;;;;34.80;16.10;;;-4.30;77.00;;;;;;5095398;28;20052;-42
2021/01/30 02:21:38;;;;;;;33.60;16.85;;;-4.40;76.80;;;;;;5095061;28;20024;-42
2021/01/30 02:24:33;;;;;;;43.28;20.60;;;-4.40;76.90;;;;;;5096781;28;20451;-42
2021/01/30 02:27:13;;;;;;;42.58;20.58;;;-4.40;76.80;;;;;;5095687;28;20024;-41
2021/01/30 02:29:42;;;;;;;43.45;19.13;;;-4.40;76.60;;;;;;5095389;28;20114;-41
2021/01/30 02:32:31;;;;;;;36.17;17.92;;;-4.50;76.70;;;;;;5094979;28;20020;-42
2021/01/30 02:35:18;;;;;;;36.53;18.33;;;-4.50;76.90;;;;;;5095388;28;20066;-42
2021/01/30 02:37:47;;;;;;;34.90;17.48;;;-4.50;77.20;;;;;;5095852;28;20318;-42
2021/01/30 02:40:18;;;;;;;36.60;17.45;;;-4.50;77.00;;;;;;5095394;28;20433;-41
2021/01/30 02:42:56;;;;;;;29.77;16.73;;;-4.50;77.00;;;;;;5095514;28;20379;-42
2021/01/30 02:45:25;;;;;;;33.75;17.27;;;-4.60;77.00;;;;;;5095413;28;20342;-42
2021/01/30 02:48:00;;;;;;;33.95;17.38;;;-4.60;77.10;;;;;;5095307;28;20032;-42
2021/01/30 02:50:33;;;;;;;38.42;18.70;;;-4.60;77.20;;;;;;5095160;28;20115;-42
2021/01/30 02:53:02;;;;;;;37.53;18.88;;;-4.60;77.20;;;;;;5095641;28;20409;-42
2021/01/30 02:55:30;;;;;;;35.92;19.15;;;-4.60;77.30;;;;;;5094629;28;20062;-42
2021/01/30 02:57:57;;;;;;;34.50;18.10;;;-4.60;77.30;;;;;;5095578;28;20047;-42
2021/01/30 03:00:25;;;;;;;40.85;20.42;;;-4.60;77.40;;;;;;5094663;28;20040;-42
2021/01/30 03:02:51;;;;;;;41.58;19.63;;;-4.60;77.20;;;;;;5095479;28;20028;-42
2021/01/30 03:05:17;;;;;;;40.47;20.23;;;-4.50;77.20;;;;;;5095037;28;20055;-42
2021/01/30 03:07:55;;;;;;;40.70;20.10;;;-4.60;77.00;;;;;;5095273;28;20032;-42
2021/01/30 03:10:36;;;;;;;40.17;19.88;;;-4.50;77.00;;;;;;5095364;28;20020;-42
2021/01/30 03:13:38;;;;;;;37.60;19.15;;;-4.60;76.80;;;;;;5095350;28;20031;-42
2021/01/30 03:16:13;;;;;;;36.25;19.50;;;-4.60;77.00;;;;;;5094981;28;20035;-42
2021/01/30 03:18:49;;;;;;;36.78;19.58;;;-4.60;77.10;;;;;;5095254;28;20063;-41
2021/01/30 03:21:16;;;;;;;36.78;18.98;;;-4.70;76.90;;;;;;5094535;28;20024;-42
2021/01/30 03:23:43;;;;;;;36.78;19.55;;;-4.70;77.20;;;;;;5095759;28;20038;-41
2021/01/30 03:26:14;;;;;;;47.63;28.90;;;-4.70;77.30;;;;;;5096207;28;20012;-42
2021/01/30 03:28:40;;;;;;;38.50;20.42;;;-4.70;77.30;;;;;;5098871;28;20035;-42
2021/01/30 03:31:06;;;;;;;40.22;20.08;;;-4.70;77.30;;;;;;5098377;28;20035;-42
2021/01/30 03:33:32;;;;;;;36.25;19.50;;;-4.70;77.20;;;;;;5099560;28;20032;-42
2021/01/30 03:35:57;;;;;;;40.40;19.52;;;-4.70;77.40;;;;;;5098464;28;20024;-42
2021/01/30 03:38:23;;;;;;;36.88;19.17;;;-4.60;77.30;;;;;;5098645;28;20036;-42
2021/01/30 03:40:49;;;;;;;38.65;18.00;;;-4.60;77.30;;;;;;5098267;28;20055;-42
2021/01/30 03:43:15;;;;;;;35.40;18.83;;;-4.60;77.30;;;;;;5098333;28;20035;-42
2021/01/30 03:45:41;;;;;;;40.03;19.88;;;-4.60;77.40;;;;;;5097744;28;20031;-42
2021/01/30 03:48:07;;;;;;;39.10;19.10;;;-4.60;77.40;;;;;;5098768;28;20032;-42
2021/01/30 03:50:33;;;;;;;37.30;19.33;;;-4.60;77.50;;;;;;5097768;28;20111;-42
2021/01/30 03:52:59;;;;;;;37.65;19.30;;;-4.60;77.40;;;;;;5098488;28;20476;-42
2021/01/30 03:55:25;;;;;;;41.00;19.55;;;-4.60;77.40;;;;;;5097545;28;20107;-42
2021/01/30 03:57:51;;;;;;;38.92;19.40;;;-4.50;77.50;;;;;;5098413;28;20131;-41
2021/01/30 04:00:20;;;;;;;36.13;20.48;;;-4.50;77.40;;;;;;5097941;28;20379;-42
2021/01/30 04:02:47;;;;;;;44.17;20.77;;;-4.50;77.30;;;;;;5098125;28;20036;-42
2021/01/30 04:05:15;;;;;;;39.00;21.25;;;-4.50;77.10;;;;;;5097612;28;20067;-42
2021/01/30 04:07:43;;;;;;;78.20;28.40;;;-4.50;77.00;;;;;;5097809;28;20036;-42
2021/01/30 04:10:11;;;;;;;51.88;22.63;;;-4.50;76.70;;;;;;5097670;28;20028;-42
2021/01/30 04:12:39;;;;;;;48.20;23.33;;;-4.50;76.60;;;;;;5097964;28;20032;-42
2021/01/30 04:15:05;;;;;;;62.03;25.55;;;-4.50;76.60;;;;;;5097750;28;20345;-42
2021/01/30 04:17:31;;;;;;;46.95;22.48;;;-4.50;76.70;;;;;;5097927;28;20036;-42
2021/01/30 04:19:56;;;;;;;45.92;22.08;;;-4.50;76.70;;;;;;5097347;28;20054;-42
2021/01/30 04:22:22;;;;;;;44.03;19.67;;;-4.50;76.60;;;;;;5098027;28;20528;-42
2021/01/30 04:24:47;;;;;;;48.65;23.73;;;-4.50;76.40;;;;;;5097715;28;20322;-42
2021/01/30 04:27:14;;;;;;;39.88;22.02;;;-4.50;76.30;;;;;;5096837;28;20077;-42
2021/01/30 04:29:42;;;;;;;41.88;21.92;;;-4.60;76.20;;;;;;5097723;28;20081;-42
2021/01/30 04:32:09;;;;;;;41.47;22.85;;;-4.60;76.40;;;;;;5097000;28;20386;-42
2021/01/30 04:34:35;;;;;;;48.25;23.15;;;-4.60;76.40;;;;;;5097173;28;20027;-42
2021/01/30 04:37:01;;;;;;;45.33;23.30;;;-4.60;76.30;;;;;;5097607;28;20054;-42
2021/01/30 04:39:27;;;;;;;43.15;21.35;;;-4.60;76.30;;;;;;5097472;28;20044;-42
2021/01/30 04:41:59;;;;;;;44.03;22.60;;;-4.60;76.20;;;;;;5096899;28;20035;-42
2021/01/30 04:44:30;;;;;;;44.85;22.48;;;-4.60;76.40;;;;;;5097632;28;20035;-42
2021/01/30 04:47:28;;;;;;;45.10;22.30;;;-4.60;76.70;;;;;;5097387;28;20035;-42
2021/01/30 04:49:59;;;;;;;41.80;22.17;;;-4.60;76.90;;;;;;5096960;28;20349;-42
2021/01/30 04:52:42;;;;;;;42.22;21.13;;;-4.60;77.00;;;;;;5097126;28;20032;-42
2021/01/30 04:55:45;;;;;;;89.57;45.38;;;-4.60;76.90;;;;;;5095912;28;20024;-42
2021/01/30 04:58:51;;;;;;;43.40;21.27;;;-4.60;76.90;;;;;;5076917;28;20044;-42
2021/01/30 05:01:18;;;;;;;42.15;22.08;;;-4.60;76.90;;;;;;5062855;28;20031;-42
2021/01/30 05:04:08;;;;;;;44.45;21.65;;;-4.60;76.80;;;;;;5091259;28;20036;-42
2021/01/30 05:06:58;;;;;;;40.83;21.25;;;-4.60;77.10;;;;;;5105371;28;20080;-42
2021/01/30 05:09:27;;;;;;;39.35;20.40;;;-4.60;77.20;;;;;;5076455;28;20418;-42
2021/01/30 05:12:00;;;;;;;48.53;24.98;;;-4.60;77.50;;;;;;5076267;28;20028;-42
2021/01/30 05:14:30;;;;;;;42.60;21.90;;;-4.50;77.50;;;;;;5083828;28;20059;-42
2021/01/30 05:17:42;;;;;;;45.75;22.88;;;-4.50;77.50;;;;;;5085008;28;20024;-42
2021/01/30 05:20:10;;;;;;;47.60;21.33;;;-4.50;77.80;;;;;;5062633;28;20051;-41
2021/01/30 05:22:42;;;;;;;40.80;22.73;;;-4.50;77.50;;;;;;5076282;28;20162;-41
2021/01/30 05:25:21;;;;;;;46.92;24.67;;;-4.50;77.20;;;;;;5095559;28;20028;-42
2021/01/30 05:28:06;;;;;;;49.72;25.15;;;-4.40;77.30;;;;;;5093020;28;20031;-42
2021/01/30 05:30:42;;;;;;;49.55;26.15;;;-4.40;76.80;;;;;;5091163;28;20436;-41
2021/01/30 05:33:15;;;;;;;50.22;25.25;;;-4.40;77.40;;;;;;5112088;28;20031;-42
2021/01/30 05:35:49;;;;;;;52.85;26.10;;;-4.40;77.40;;;;;;5105175;28;20031;-42
2021/01/30 05:38:32;;;;;;;51.25;27.38;;;-4.40;77.70;;;;;;5101049;28;20413;-42
2021/01/30 05:41:07;;;;;;;54.88;26.95;;;-4.30;78.00;;;;;;5082214;28;20027;-42
2021/01/30 05:43:53;;;;;;;52.38;24.50;;;-4.30;77.60;;;;;;5097108;28;20051;-43
2021/01/30 05:46:29;;;;;;;53.55;26.25;;;-4.20;77.40;;;;;;5095243;28;20027;-41
2021/01/30 05:48:56;;;;;;;50.35;26.92;;;-4.20;77.40;;;;;;5094032;28;20346;-40
2021/01/30 05:51:37;;;;;;;54.60;26.42;;;-4.20;77.60;;;;;;5096065;28;20346;-37
2021/01/30 05:54:04;;;;;;;56.05;25.95;;;-4.10;77.90;;;;;;5095902;28;20032;-37
2021/01/30 05:56:41;;;;;;;50.70;25.98;;;-4.10;77.90;;;;;;5095715;28;20177;-40
2021/01/30 05:59:33;;;;;;;55.15;26.75;;;-4.00;78.00;;;;;;5089857;28;20119;-40
2021/01/30 06:02:15;;;;;;;55.20;26.00;;;-4.00;78.00;;;;;;5088256;28;20388;-40
2021/01/30 06:04:41;;;;;;;54.05;27.67;;;-3.90;78.00;;;;;;5084576;28;20448;-40
2021/01/30 06:07:20;;;;;;;59.53;28.88;;;-3.90;78.10;;;;;;5104537;28;20131;-40
2021/01/30 06:09:46;;;;;;;63.65;35.83;;;-3.80;78.20;;;;;;5096295;28;20024;-40
2021/01/30 06:12:31;;;;;;;57.20;28.98;;;-3.70;78.30;;;;;;5094979;28;20042;-40
2021/01/30 06:15:09;;;;;;;58.72;26.70;;;-3.60;78.30;;;;;;5096342;28;20028;-40
2021/01/30 06:17:36;;;;;;;47.03;25.27;;;-3.50;78.20;;;;;;5084874;28;20036;-40
2021/01/30 06:20:25;;;;;;;49.92;25.25;;;-3.50;77.90;;;;;;5081294;28;20101;-41
2021/01/30 06:23:19;;;;;;;60.65;30.20;;;-3.40;77.80;;;;;;5093768;28;20028;-40
2021/01/30 06:25:45;;;;;;;49.10;24.48;;;-3.40;77.90;;;;;;5090297;28;20379;-41
2021/01/30 06:28:14;;;;;;;49.60;25.48;;;-3.30;77.90;;;;;;5097318;28;20066;-40
2021/01/30 06:30:44;;;;;;;49.42;25.55;;;-3.20;78.00;;;;;;5114052;28;20024;-43
2021/01/30 06:33:30;;;;;;;55.03;30.10;;;-3.20;78.10;;;;;;5110713;28;20039;-40
2021/01/30 06:36:12;;;;;;;49.35;26.40;;;-3.10;78.20;;;;;;5094231;28;20055;-40
2021/01/30 06:38:41;;;;;;;46.40;24.55;;;-3.00;78.20;;;;;;5076108;28;20050;-40
2021/01/30 06:41:19;;;;;;;47.25;25.05;;;-2.90;78.00;;;;;;5087920;28;20050;-40
2021/01/30 06:43:50;;;;;;;49.70;25.05;;;-2.80;78.00;;;;;;5096541;28;20074;-40
2021/01/30 06:46:20;;;;;;;53.95;26.20;;;-2.70;77.80;;;;;;5095667;28;20032;-40
2021/01/30 06:48:48;;;;;;;54.80;27.67;;;-2.60;77.30;;;;;;5105816;28;20326;-40
2021/01/30 06:51:20;;;;;;;52.88;26.98;;;-2.60;77.10;;;;;;5089959;28;20039;-41
2021/01/30 06:53:45;;;;;;;64.10;30.95;;;-2.60;77.20;;;;;;5087695;28;20035;-40
2021/01/30 06:56:35;;;;;;;59.53;29.58;;;-2.60;77.50;;;;;;5073897;28;20025;-42
2021/01/30 06:59:04;;;;;;;76.47;40.53;;;-2.50;78.10;;;;;;5089901;28;20042;-42
2021/01/30 07:01:47;;;;;;;62.17;33.92;;;-2.40;78.30;;;;;;5091016;28;20422;-42
2021/01/30 07:04:51;;;;;;;203.85;80.13;;;-2.30;78.30;;;;;;5106447;28;20034;-41
2021/01/30 07:07:27;;;;;;;170.45;83.20;;;-2.20;78.40;;;;;;5094116;28;20028;-41
2021/01/30 07:10:14;;;;;;;76.55;40.63;;;-2.00;78.60;;;;;;5092426;28;20310;-41
2021/01/30 07:13:14;;;;;;;101.95;48.67;;;-1.90;78.50;;;;;;5103551;28;20043;-40
2021/01/30 07:15:44;;;;;;;85.68;43.38;;;-1.80;78.40;;;;;;5105559;28;20019;-41
2021/01/30 07:18:31;;;;;;;77.75;38.58;;;-1.70;78.50;;;;;;5078024;28;20048;-40
2021/01/30 07:21:12;;;;;;;116.32;55.58;;;-1.60;78.30;;;;;;5098582;28;20471;-41
2021/01/30 07:23:44;;;;;;;153.13;75.30;;;-1.50;78.10;;;;;;5104709;28;20161;-40
2021/01/30 07:26:21;;;;;;;119.95;63.25;;;-1.40;78.20;;;;;;5103888;28;20028;-41
2021/01/30 07:29:12;;;;;;;83.60;44.03;;;-1.30;78.40;;;;;;5090460;28;20035;-40
2021/01/30 07:32:04;;;;;;;;;;;-1.10;78.50;;;;;;5093685;28;20027;-41
2021/01/30 07:35:11;;;;;;;123.43;52.72;;;-1.00;78.90;;;;;;5087894;28;19958;-41
2021/01/30 07:37:54;;;;;;;107.13;49.03;;;-0.90;78.30;;;;;;5077440;28;20060;-40
2021/01/30 07:40:28;;;;;;;95.20;47.10;;;-0.80;78.20;;;;;;5099412;28;20024;-41
2021/01/30 07:43:27;;;;;;;78.72;40.05;;;-0.70;78.30;;;;;;5117110;28;20035;-41
2021/01/30 07:46:14;;;;;;;78.63;33.47;;;-0.50;78.20;;;;;;5079506;28;20075;-42
2021/01/30 07:48:46;;;;;;;62.88;31.67;;;-0.40;78.00;;;;;;5097594;28;20020;-41
2021/01/30 07:51:16;;;;;;;82.07;40.40;;;-0.40;77.80;;;;;;5097760;28;20020;-44
2021/01/30 07:53:43;;;;;;;134.05;53.97;;;-0.30;77.60;;;;;;5094069;28;20019;-45
2021/01/30 07:56:17;;;;;;;111.05;45.40;;;-0.20;77.50;;;;;;5074336;28;20458;-41
2021/01/30 07:59:24;;;;;;;78.53;32.78;;;-0.10;77.40;;;;;;5087520;28;20047;-41
2021/01/30 08:02:11;;;;;;;103.20;42.08;;;-0.10;77.30;;;;;;5081456;28;20039;-41
2021/01/30 08:04:58;;;;;;;108.13;46.88;;;0.00;77.20;;;;;;5088532;28;20144;-41
2021/01/30 08:07:34;;;;;;;56.95;27.40;;;0.10;77.20;;;;;;5101189;28;20028;-41
2021/01/30 08:10:22;;;;;;;71.32;35.10;;;0.20;77.10;;;;;;5097772;28;20051;-41
2021/01/30 08:13:07;;;;;;;75.43;36.45;;;0.30;77.30;;;;;;5100578;28;20073;-41
2021/01/30 08:15:40;;;;;;;61.70;30.73;;;0.30;76.90;;;;;;5094430;28;20349;-41
2021/01/30 08:18:34;;;;;;;58.47;30.83;;;0.50;76.40;;;;;;5097236;28;20060;-41
2021/01/30 08:21:18;;;;;;;55.00;28.27;;;0.50;76.30;;;;;;5080917;28;20055;-41
2021/01/30 08:23:51;;;;;;;50.83;26.83;;;0.60;76.40;;;;;;5088556;28;20084;-41
2021/01/30 08:26:39;;;;;;;48.97;26.52;;;0.60;76.30;;;;;;5096696;28;20036;-42
2021/01/30 08:29:18;;;;;;;49.63;26.27;;;0.70;76.30;;;;;;5091310;28;20035;-41
2021/01/30 08:32:12;;;;;;;51.92;26.33;;;0.80;76.40;;;;;;5087516;28;20446;-41
2021/01/30 08:34:37;;;;;;;50.13;28.27;;;0.80;76.30;;;;;;5080672;28;20059;-41
2021/01/30 08:37:12;;;;;;;64.75;31.17;;;0.90;75.60;;;;;;5089993;28;20050;-41
2021/01/30 08:40:01;;;;;;;72.82;37.63;;;0.90;75.60;;;;;;5096067;28;20468;-41
2021/01/30 08:42:32;;;;;;;87.45;41.65;;;0.90;75.60;;;;;;5090445;28;20540;-41
2021/01/30 08:45:09;;;;;;;52.38;28.52;;;1.00;75.40;;;;;;5096553;28;20466;-41
2021/01/30 08:47:55;;;;;;;120.05;48.95;;;1.00;75.30;;;;;;5101468;28;20040;-41
2021/01/30 08:50:43;;;;;;;89.53;40.53;;;1.00;75.40;;;;;;5058400;28;20399;-42
2021/01/30 08:53:23;;;;;;;82.30;38.38;;;1.00;75.50;;;;;;5098488;28;20028;-43
2021/01/30 08:55:52;;;;;;;68.90;35.08;;;1.00;75.40;;;;;;5094861;28;20016;-41
2021/01/30 08:58:36;;;;;;;74.13;35.50;;;1.00;75.30;;;;;;5109627;28;20042;-41
2021/01/30 09:01:21;;;;;;;71.78;34.83;;;1.00;75.50;;;;;;5098284;28;20031;-41
2021/01/30 09:03:56;;;;;;;87.57;38.25;;;1.00;75.80;;;;;;5099556;28;20063;-41
2021/01/30 09:06:40;;;;;;;81.50;37.92;;;1.00;76.00;;;;;;5095015;28;20035;-41
2021/01/30 09:09:39;;;;;;;86.55;40.03;;;1.00;76.00;;;;;;5102301;28;20050;-42
2021/01/30 09:12:05;;;;;;;86.13;38.88;;;1.00;76.20;;;;;;5086876;28;20032;-42
2021/01/30 09:14:36;;;;;;;91.70;41.95;;;1.00;76.00;;;;;;5097024;28;20020;-42
2021/01/30 09:17:05;;;;;;;87.75;44.28;;;1.00;76.00;;;;;;5088061;28;20558;-42
2021/01/30 09:19:55;;;;;;;101.57;47.45;;;1.00;76.40;;;;;;5114485;28;20059;-42
2021/01/30 09:22:46;;;;;;;91.18;43.30;;;1.00;76.60;;;;;;5090446;28;20070;-43
2021/01/30 09:25:22;;;;;;;;;;;1.00;76.40;;;;;;5084126;28;20069;-39
2021/01/30 09:28:22;;;;;;;102.55;45.63;;;1.00;76.70;;;;;;5095518;28;19919;-43
2021/01/30 09:30:57;;;;;;;101.10;48.70;;;1.00;77.00;;;;;;5092040;28;20024;-40
2021/01/30 09:33:34;;;;;;;92.72;45.63;;;1.00;77.30;;;;;;5095849;28;20043;-42
2021/01/30 09:36:14;;;;;;;92.15;43.53;;;1.00;77.50;;;;;;5094081;28;20020;-41
2021/01/30 09:38:48;;;;;;;98.30;45.60;;;1.00;77.50;;;;;;5099341;28;20039;-41
2021/01/30 09:41:24;;;;;;;97.97;49.38;;;1.10;77.70;;;;;;5115375;28;20027;-41
2021/01/30 09:44:16;;;;;;;113.18;52.80;;;1.20;77.80;;;;;;5094982;28;20024;-41
2021/01/30 09:46:45;;;;;;;113.45;53.30;;;1.20;78.00;;;;;;5092259;28;20063;-42
2021/01/30 09:49:23;;;;;;;90.70;44.63;;;1.30;78.20;;;;;;5086094;28;20025;-39
2021/01/30 09:51:53;;;;;;;101.30;50.55;;;1.40;78.50;;;;;;5088805;28;20024;-42
2021/01/30 09:54:20;;;;;;;95.13;45.63;;;1.40;78.50;;;;;;5091685;28;20039;-42
2021/01/30 09:56:46;;;;;;;104.93;44.95;;;1.50;78.30;;;;;;5095304;28;20020;-39
2021/01/30 09:59:17;;;;;;;111.20;48.85;;;1.50;78.10;;;;;;5094138;28;20360;-38
2021/01/30 10:01:45;;;;;;;88.88;39.58;;;1.50;77.90;;;;;;5092908;28;20024;-42
2021/01/30 10:04:27;;;;;;;81.90;37.80;;;1.50;77.90;;;;;;5089430;28;20043;-42
2021/01/30 10:07:04;;;;;;;92.35;46.47;;;1.50;78.10;;;;;;5091715;28;20353;-42
2021/01/30 10:09:30;;;;;;;66.07;34.55;;;1.60;78.50;;;;;;5093099;28;20031;-42
2021/01/30 10:11:57;;;;;;;78.45;37.00;;;1.50;78.60;;;;;;5093003;28;20024;-42
2021/01/30 10:14:25;;;;;;;65.32;35.80;;;1.60;78.90;;;;;;5076995;28;20036;-43
2021/01/30 10:17:14;;;;;;;65.10;33.65;;;1.60;79.20;;;;;;5095873;28;20028;-43
2021/01/30 10:19:40;;;;;;;53.28;32.35;;;1.70;79.50;;;;;;5071547;28;20049;-40
2021/01/30 10:22:15;;;;;;;54.22;30.65;;;1.70;79.30;;;;;;5085644;28;20039;-40
2021/01/30 10:24:43;;;;;;;50.30;30.40;;;1.70;79.10;;;;;;5083060;28;20499;-39
2021/01/30 10:27:29;;;;;;;49.13;28.67;;;1.70;79.00;;;;;;5094888;28;20106;-39
2021/01/30 10:29:56;;;;;;;52.03;30.17;;;1.70;79.20;;;;;;5093501;28;20047;-39
2021/01/30 10:32:36;;;;;;;50.03;26.17;;;1.70;79.10;;;;;;5076259;28;20025;-40
2021/01/30 10:35:05;;;;;;;43.30;26.97;;;1.70;79.10;;;;;;5086266;28;20035;-39
2021/01/30 10:37:51;;;;;;;88.93;45.35;;;1.70;79.20;;;;;;5097002;28;20028;-39
2021/01/30 10:40:42;;;;;;;89.18;48.53;;;1.80;79.40;;;;;;5089696;28;20037;-39
2021/01/30 10:43:20;;;;;;;54.90;33.15;;;1.70;79.10;;;;;;5094606;28;20028;-39
2021/01/30 10:45:57;;;;;;;46.78;26.63;;;1.70;79.50;;;;;;5097140;28;20028;-40
2021/01/30 10:48:26;;;;;;;48.88;27.42;;;1.70;79.60;;;;;;5096832;28;20059;-40
2021/01/30 10:50:59;;;;;;;54.03;31.67;;;1.80;79.70;;;;;;5092815;28;20294;-40
2021/01/30 10:53:40;;;;;;;50.80;28.17;;;1.80;79.60;;;;;;5097352;28;20024;-40
2021/01/30 10:56:14;;;;;;;61.70;35.05;;;1.80;79.80;;;;;;5081257;28;20035;-40
2021/01/30 10:58:42;;;;;;;61.45;34.97;;;1.80;79.90;;;;;;5097293;28;20036;-40
2021/01/30 11:01:19;;;;;;;47.88;27.70;;;1.90;80.00;;;;;;5097600;28;20433;-40
2021/01/30 11:03:51;;;;;;;62.83;36.92;;;1.80;80.00;;;;;;5099048;28;20118;-41
2021/01/30 11:06:46;;;;;;;49.45;28.42;;;1.80;79.80;;;;;;5099310;28;20028;-40
2021/01/30 11:09:16;;;;;;;48.97;28.92;;;1.80;79.90;;;;;;5098006;28;20027;-40
2021/01/30 11:11:44;;;;;;;64.47;35.28;;;1.80;79.70;;;;;;5098550;28;20024;-39
2021/01/30 11:14:37;;;;;;;45.95;28.08;;;1.80;79.80;;;;;;5098324;28;20024;-40
2021/01/30 11:17:04;;;;;;;43.50;26.52;;;1.80;80.30;;;;;;5077288;28;20029;-40
2021/01/30 11:19:33;;;;;;;54.30;31.63;;;1.80;80.20;;;;;;5077644;28;20447;-40
2021/01/30 11:22:19;;;;;;;52.65;31.90;;;1.80;80.40;;;;;;5078265;28;20044;-42
2021/01/30 11:25:07;;;;;;;62.38;33.80;;;1.90;80.60;;;;;;5090939;28;20037;-40
2021/01/30 11:27:33;;;;;;;69.32;39.08;;;1.90;80.70;;;;;;5096979;28;20024;-40
2021/01/30 11:30:11;;;;;;;84.35;49.70;;;1.90;80.80;;;;;;5097790;28;20085;-40
2021/01/30 11:32:37;;;;;;;101.18;53.47;;;1.90;80.80;;;;;;5096621;28;20024;-41
2021/01/30 11:35:04;;;;;;;85.35;49.15;;;1.90;80.80;;;;;;5095001;28;20039;-40
2021/01/30 11:37:31;;;;;;;65.22;39.65;;;2.00;81.00;;;;;;5096934;28;20028;-40
2021/01/30 11:40:03;;;;;;;58.40;33.22;;;2.00;81.10;;;;;;5096975;28;20035;-40
2021/01/30 11:42:29;;;;;;;57.55;31.55;;;2.10;81.30;;;;;;5101765;28;20367;-40
2021/01/30 11:44:54;;;;;;;53.22;32.13;;;2.10;81.20;;;;;;5114111;28;20035;-40
2021/01/30 11:47:20;;;;;;;63.55;34.83;;;2.10;81.30;;;;;;5112004;28;20460;-43
2021/01/30 11:49:47;;;;;;;64.45;36.10;;;2.10;81.30;;;;;;5097464;28;20036;-40
2021/01/30 11:52:33;;;;;;;61.60;35.95;;;2.20;81.40;;;;;;5089543;28;20029;-40
2021/01/30 11:55:02;;;;;;;58.15;32.40;;;2.20;81.50;;;;;;5079726;28;20106;-40
2021/01/30 11:57:28;;;;;;;69.45;39.28;;;2.20;81.40;;;;;;5091148;28;20032;-41
2021/01/30 11:59:54;;;;;;;68.65;39.60;;;2.30;81.30;;;;;;5096436;28;20497;-40
2021/01/30 12:02:40;;;;;;;75.75;40.40;;;2.30;81.40;;;;;;5089884;28;20020;-43
2021/01/30 12:05:09;;;;;;;68.00;36.03;;;2.30;81.60;;;;;;5080949;28;20039;-41
2021/01/30 12:07:35;;;;;;;63.90;34.05;;;2.30;81.50;;;;;;5096168;28;20032;-40
2021/01/30 12:10:01;;;;;;;64.88;36.63;;;2.30;81.40;;;;;;5095650;28;20059;-40
2021/01/30 12:12:27;;;;;;;61.83;36.22;;;2.30;81.50;;;;;;5095682;28;20055;-41
2021/01/30 12:14:53;;;;;;;75.55;42.20;;;2.40;81.60;;;;;;5096982;28;20038;-40
2021/01/30 12:17:32;;;;;;;78.72;41.40;;;2.40;81.60;;;;;;5097479;28;20023;-41
2021/01/30 12:19:57;;;;;;;75.75;38.65;;;2.40;81.50;;;;;;5094615;28;20362;-40
2021/01/30 12:22:23;;;;;;;79.30;40.70;;;2.40;81.60;;;;;;5075073;28;20028;-41
2021/01/30 12:24:49;;;;;;;70.53;37.15;;;2.40;81.70;;;;;;5082607;28;20036;-41
2021/01/30 12:27:18;;;;;;;70.18;39.80;;;2.40;81.70;;;;;;5096625;28;20114;-41
2021/01/30 12:29:44;;;;;;;71.88;38.40;;;2.40;81.90;;;;;;5088807;28;20040;-41
2021/01/30 12:32:11;;;;;;;74.28;41.95;;;2.40;81.80;;;;;;5112085;28;20046;-41
2021/01/30 12:34:37;;;;;;;77.88;43.13;;;2.40;81.90;;;;;;5100083;28;20032;-41
2021/01/30 12:37:04;;;;;;;75.30;39.47;;;2.40;82.00;;;;;;5097044;28;20035;-41
2021/01/30 12:39:29;;;;;;;78.88;43.45;;;2.40;82.10;;;;;;5081555;28;20059;-42
2021/01/30 12:41:55;;;;;;;81.75;42.38;;;2.50;82.20;;;;;;5077018;28;20028;-43
2021/01/30 12:44:24;;;;;;;77.82;44.70;;;2.50;82.30;;;;;;5112636;28;20035;-40
2021/01/30 12:46:51;;;;;;;79.07;43.08;;;2.50;82.40;;;;;;5115808;28;20020;-40
2021/01/30 12:49:17;;;;;;;82.50;43.00;;;2.60;82.40;;;;;;5076639;28;20070;-40
2021/01/30 12:51:44;;;;;;;85.57;47.45;;;2.60;82.50;;;;;;5076230;28;20103;-41
2021/01/30 12:54:10;;;;;;;68.65;40.53;;;2.60;82.50;;;;;;5081963;28;20030;-40
2021/01/30 12:56:36;;;;;;;70.25;39.38;;;2.60;82.60;;;;;;5091692;28;20034;-41
2021/01/30 12:59:03;;;;;;;85.20;45.75;;;2.70;82.70;;;;;;5094935;28;20032;-42
2021/01/30 13:01:32;;;;;;;132.38;56.70;;;2.70;82.70;;;;;;5085531;28;20030;-40
2021/01/30 13:03:58;;;;;;;109.15;47.65;;;2.80;82.80;;;;;;5090643;28;20020;-41
2021/01/30 13:06:24;;;;;;;83.30;42.92;;;2.80;82.80;;;;;;5096780;28;20023;-41